Time;durP1;ratioP1;P1;durP2;ratioP2;P2;SDS_P1;SDS_P2;PMS_P1;PMS_P2;Temp;Humidity;BMP_temperature;BMP_pressure;BME280_temperature;BME280_humidity;BME280_pressure;Samples;Min_cycle;Max_cycle;Signal;HPM_P1;HPM_P2
2023/07/15 00:00:53;;;;;;;5.25;2.90;;;20.60;99.90;;;;;;5094589;28;20036;-66
2023/07/15 00:03:20;;;;;;;9.57;2.55;;;20.60;99.90;;;;;;5070780;28;20082;-66
2023/07/15 00:05:47;;;;;;;3.67;2.22;;;20.50;99.90;;;;;;5094185;28;20472;-67
2023/07/15 00:08:13;;;;;;;3.22;2.17;;;20.50;99.90;;;;;;5086304;28;20029;-66
2023/07/15 00:10:45;;;;;;;2.20;1.70;;;20.40;99.90;;;;;;5094232;28;20031;-66
2023/07/15 00:13:18;;;;;;;3.42;2.15;;;20.40;99.90;;;;;;5093543;28;20479;-66
2023/07/15 00:15:50;;;;;;;3.08;1.90;;;20.40;99.90;;;;;;5094284;28;20024;-66
2023/07/15 00:18:17;;;;;;;3.20;2.10;;;20.40;99.90;;;;;;5093437;28;20032;-66
2023/07/15 00:20:47;;;;;;;3.97;1.95;;;20.40;99.90;;;;;;5093845;28;20039;-83
2023/07/15 00:23:19;;;;;;;2.75;1.88;;;20.40;99.90;;;;;;5092879;28;20020;-66
2023/07/15 00:25:46;;;;;;;4.30;1.75;;;20.50;99.90;;;;;;5095483;28;20020;-67
2023/07/15 00:28:12;;;;;;;;;;;20.50;99.90;;;;;;5094866;28;20108;-65
2023/07/15 00:30:37;;;;;;;4.85;2.03;;;20.60;99.90;;;;;;5090967;28;20000;-66
2023/07/15 00:33:05;;;;;;;3.23;2.13;;;20.60;99.90;;;;;;5095013;28;20069;-65
2023/07/15 00:35:32;;;;;;;2.63;1.77;;;20.70;99.90;;;;;;5096786;28;20056;-65
2023/07/15 00:37:59;;;;;;;4.05;1.58;;;20.70;99.90;;;;;;5096048;28;20032;-65
2023/07/15 00:40:26;;;;;;;2.65;2.05;;;20.80;99.90;;;;;;5096608;28;20111;-65
2023/07/15 00:43:30;;;;;;;2.95;1.83;;;20.90;99.90;;;;;;5096712;28;20039;-65
2023/07/15 00:46:23;;;;;;;3.15;1.52;;;21.00;99.90;;;;;;5077097;28;20024;-65
2023/07/15 00:48:54;;;;;;;2.20;1.42;;;21.10;99.90;;;;;;5081058;28;20040;-65
2023/07/15 00:51:21;;;;;;;4.03;1.92;;;21.10;99.90;;;;;;5091479;28;20415;-66
2023/07/15 00:53:48;;;;;;;4.13;1.50;;;21.30;99.90;;;;;;5098764;28;20377;-67
2023/07/15 00:56:14;;;;;;;2.85;1.40;;;21.30;99.90;;;;;;5087324;28;20335;-66
2023/07/15 00:58:40;;;;;;;1.77;1.40;;;21.30;99.90;;;;;;5096554;28;20023;-66
2023/07/15 01:01:07;;;;;;;5.33;1.53;;;21.40;99.90;;;;;;5097149;28;20028;-66
2023/07/15 01:03:33;;;;;;;5.60;1.83;;;21.50;99.90;;;;;;5095545;28;20248;-66
2023/07/15 01:05:59;;;;;;;8.57;1.53;;;21.60;99.90;;;;;;5095749;28;20035;-65
2023/07/15 01:08:25;;;;;;;4.13;1.80;;;21.60;99.90;;;;;;5091763;28;20031;-65
2023/07/15 01:10:50;;;;;;;4.23;1.40;;;21.60;99.90;;;;;;5091819;28;20020;-83
2023/07/15 01:13:16;;;;;;;2.90;1.37;;;21.70;99.90;;;;;;5096932;28;20737;-66
2023/07/15 01:15:42;;;;;;;1.87;1.47;;;21.70;99.90;;;;;;5093579;28;20044;-66
2023/07/15 01:18:08;;;;;;;7.28;1.33;;;21.70;99.90;;;;;;5088722;28;20028;-66
2023/07/15 01:20:34;;;;;;;2.65;1.50;;;21.70;99.90;;;;;;5096301;28;20044;-76
2023/07/15 01:23:00;;;;;;;4.88;1.80;;;21.70;99.90;;;;;;5090193;28;20043;-66
2023/07/15 01:25:26;;;;;;;2.95;1.63;;;21.80;99.90;;;;;;5083497;28;20036;-66
2023/07/15 01:27:51;;;;;;;1.75;1.30;;;21.70;99.90;;;;;;5082359;28;20054;-66
2023/07/15 01:30:17;;;;;;;3.90;1.63;;;21.70;99.90;;;;;;5095887;28;20067;-66
2023/07/15 01:32:43;;;;;;;3.37;1.60;;;21.60;99.90;;;;;;5085718;28;20024;-65
2023/07/15 01:35:08;;;;;;;3.05;1.88;;;21.50;99.90;;;;;;5093042;28;20099;-66
2023/07/15 01:37:34;;;;;;;4.43;1.57;;;21.40;99.90;;;;;;5095834;28;20024;-66
2023/07/15 01:40:00;;;;;;;2.63;1.23;;;21.40;99.90;;;;;;5094718;28;20020;-66
2023/07/15 01:42:26;;;;;;;4.47;1.92;;;21.40;99.90;;;;;;5094767;28;20027;-65
2023/07/15 01:44:52;;;;;;;5.03;1.75;;;21.30;99.90;;;;;;5095248;28;20106;-66
2023/07/15 01:47:17;;;;;;;1.83;1.63;;;21.30;99.90;;;;;;5095282;28;20054;-66
2023/07/15 01:49:43;;;;;;;8.37;2.00;;;21.20;99.90;;;;;;5080626;28;20113;-66
2023/07/15 01:52:09;;;;;;;6.97;2.03;;;21.10;99.90;;;;;;5076945;28;20020;-65
2023/07/15 01:54:35;;;;;;;3.25;1.95;;;21.00;99.90;;;;;;5095049;28;20284;-85
2023/07/15 01:57:01;;;;;;;2.77;1.70;;;20.90;99.90;;;;;;5094605;28;20028;-66
2023/07/15 01:59:27;;;;;;;7.05;2.00;;;20.80;99.90;;;;;;5095518;28;20270;-66
2023/07/15 02:01:57;;;;;;;9.77;2.10;;;20.80;99.90;;;;;;5094331;28;20039;-66
2023/07/15 02:04:22;;;;;;;1.95;1.40;;;20.70;99.90;;;;;;5092422;28;20422;-66
2023/07/15 02:06:48;;;;;;;3.40;1.77;;;20.50;99.90;;;;;;5094297;28;20098;-66
2023/07/15 02:09:14;;;;;;;2.45;1.83;;;20.50;99.90;;;;;;5094771;28;20333;-67
2023/07/15 02:11:40;;;;;;;4.90;1.90;;;20.40;99.90;;;;;;5073598;28;20031;-66
2023/07/15 02:14:08;;;;;;;2.93;1.80;;;20.40;99.90;;;;;;5087969;28;20433;-66
2023/07/15 02:16:34;;;;;;;2.85;1.80;;;20.30;99.90;;;;;;5093559;28;20077;-66
2023/07/15 02:19:00;;;;;;;4.18;1.80;;;20.30;99.90;;;;;;5093957;28;20027;-66
2023/07/15 02:21:26;;;;;;;2.80;2.13;;;20.30;99.90;;;;;;5091820;28;20055;-66
2023/07/15 02:23:52;;;;;;;5.80;2.27;;;20.20;99.90;;;;;;5089409;28;20043;-66
2023/07/15 02:26:18;;;;;;;6.07;2.80;;;20.10;99.90;;;;;;5093412;28;20025;-66
2023/07/15 02:28:44;;;;;;;2.88;2.03;;;20.10;99.90;;;;;;5091015;28;20032;-67
2023/07/15 02:31:09;;;;;;;2.60;1.57;;;20.10;99.90;;;;;;5094449;28;20080;-66
2023/07/15 02:33:35;;;;;;;3.43;1.90;;;20.10;99.90;;;;;;5094301;28;20028;-67
2023/07/15 02:36:03;;;;;;;4.33;1.90;;;20.10;99.90;;;;;;5091790;28;20039;-66
2023/07/15 02:38:29;;;;;;;4.28;2.28;;;20.00;99.90;;;;;;5094589;28;20055;-67
2023/07/15 02:40:55;;;;;;;3.63;1.57;;;20.00;99.90;;;;;;5094324;28;20060;-66
2023/07/15 02:43:21;;;;;;;3.30;1.90;;;20.00;99.90;;;;;;5092834;28;20030;-66
2023/07/15 02:45:50;;;;;;;3.37;2.10;;;20.00;99.90;;;;;;5092670;28;20032;-66
2023/07/15 02:48:16;;;;;;;3.42;1.92;;;19.90;99.90;;;;;;5062389;28;20044;-67
2023/07/15 02:50:41;;;;;;;4.53;1.60;;;19.90;99.90;;;;;;5093564;28;20330;-67
2023/07/15 02:53:07;;;;;;;2.80;1.77;;;19.80;99.90;;;;;;5091964;28;20039;-66
2023/07/15 02:55:33;;;;;;;2.70;1.77;;;19.70;99.90;;;;;;5090899;28;20074;-84
2023/07/15 02:57:59;;;;;;;3.13;2.00;;;19.70;99.90;;;;;;5093567;28;20032;-66
2023/07/15 03:00:24;;;;;;;5.70;1.93;;;19.70;99.90;;;;;;5093999;28;20043;-66
2023/07/15 03:02:51;;;;;;;3.10;1.77;;;19.70;99.90;;;;;;5095167;28;20024;-66
2023/07/15 03:05:17;;;;;;;;;;;19.80;99.90;;;;;;5094595;28;20024;-66
2023/07/15 03:07:44;;;;;;;3.67;1.85;;;19.80;99.90;;;;;;5084755;28;19983;-66
2023/07/15 03:10:12;;;;;;;2.47;1.73;;;19.80;99.90;;;;;;5082205;28;20039;-66
2023/07/15 03:12:38;;;;;;;3.17;1.75;;;19.80;99.90;;;;;;5094849;28;20031;-66
2023/07/15 03:15:06;;;;;;;3.70;1.80;;;19.80;99.90;;;;;;5079219;28;20067;-66
2023/07/15 03:17:37;;;;;;;3.80;1.83;;;19.80;99.90;;;;;;5090582;28;20029;-66
2023/07/15 03:20:14;;;;;;;2.70;2.08;;;19.80;99.90;;;;;;5087941;28;20020;-66
2023/07/15 03:22:39;;;;;;;6.88;2.10;;;19.80;99.90;;;;;;5074728;28;20107;-66
2023/07/15 03:25:06;;;;;;;3.10;1.80;;;19.80;99.90;;;;;;5087968;28;20103;-66
2023/07/15 03:27:32;;;;;;;4.75;2.15;;;19.70;99.90;;;;;;5072761;28;20510;-66
2023/07/15 03:29:57;;;;;;;4.00;2.20;;;19.70;99.90;;;;;;5074396;28;20115;-66
2023/07/15 03:32:23;;;;;;;2.77;2.10;;;19.60;99.90;;;;;;5091375;28;20032;-66
2023/07/15 03:34:49;;;;;;;2.63;1.80;;;19.60;99.90;;;;;;5092497;28;20024;-66
2023/07/15 03:37:15;;;;;;;3.28;1.95;;;19.60;99.90;;;;;;5094748;28;20024;-66
2023/07/15 03:39:41;;;;;;;2.57;1.50;;;19.60;99.90;;;;;;5083697;28;20082;-66
2023/07/15 03:42:07;;;;;;;4.23;1.97;;;19.60;99.90;;;;;;5093524;28;20016;-66
2023/07/15 03:44:32;;;;;;;3.65;2.15;;;19.60;99.90;;;;;;5091871;28;20013;-66
2023/07/15 03:46:58;;;;;;;5.63;1.93;;;19.60;99.90;;;;;;5097968;28;20480;-66
2023/07/15 03:49:24;;;;;;;2.90;1.73;;;19.60;99.90;;;;;;5092356;28;20414;-66
2023/07/15 03:51:50;;;;;;;4.22;2.05;;;19.60;99.90;;;;;;5091948;28;20441;-65
2023/07/15 03:54:16;;;;;;;8.38;2.15;;;19.60;99.90;;;;;;5070800;28;20052;-82
2023/07/15 03:56:42;;;;;;;2.90;2.10;;;19.60;99.90;;;;;;5084559;28;20052;-66
2023/07/15 03:59:08;;;;;;;4.20;1.90;;;19.60;99.90;;;;;;5096265;28;20020;-66
2023/07/15 04:01:35;;;;;;;7.07;1.92;;;19.60;99.90;;;;;;5075389;28;20031;-66
2023/07/15 04:04:04;;;;;;;;;;;19.60;99.90;;;;;;5089753;28;20020;-66
2023/07/15 04:06:33;;;;;;;2.50;1.90;;;19.60;99.90;;;;;;5089275;28;20230;-66
2023/07/15 04:08:59;;;;;;;3.85;2.05;;;19.60;99.90;;;;;;5097018;28;20020;-67
2023/07/15 04:11:24;;;;;;;2.30;1.50;;;19.60;99.90;;;;;;5096551;28;20036;-68
2023/07/15 04:13:50;;;;;;;2.33;1.63;;;19.60;99.90;;;;;;5085940;28;20276;-66
2023/07/15 04:16:16;;;;;;;5.82;1.52;;;19.60;99.90;;;;;;5089342;28;20024;-66
2023/07/15 04:18:42;;;;;;;6.10;2.30;;;19.60;99.90;;;;;;5087973;28;20319;-66
2023/07/15 04:21:09;;;;;;;4.47;1.85;;;19.60;99.90;;;;;;5093325;28;20054;-66
2023/07/15 04:23:34;;;;;;;3.30;1.65;;;19.60;99.90;;;;;;5094236;28;20085;-67
2023/07/15 04:26:00;;;;;;;2.50;1.60;;;19.70;99.90;;;;;;5086518;28;20032;-67
2023/07/15 04:28:26;;;;;;;1.98;1.50;;;19.70;99.90;;;;;;5096092;28;20304;-85
2023/07/15 04:30:52;;;;;;;4.35;1.50;;;19.80;99.90;;;;;;5088903;28;20021;-67
2023/07/15 04:33:18;;;;;;;1.40;1.20;;;19.80;99.90;;;;;;5090749;28;20385;-67
2023/07/15 04:35:44;;;;;;;3.37;1.60;;;19.80;99.90;;;;;;5086611;28;20031;-67
2023/07/15 04:38:10;;;;;;;5.25;1.98;;;19.80;99.90;;;;;;5088726;28;20027;-67
2023/07/15 04:40:36;;;;;;;4.60;1.73;;;19.80;99.90;;;;;;5086947;28;20036;-67
2023/07/15 04:43:02;;;;;;;3.92;1.50;;;19.90;99.90;;;;;;5093638;28;20024;-67
2023/07/15 04:45:29;;;;;;;3.00;1.75;;;19.90;99.90;;;;;;5096488;28;20051;-67
2023/07/15 04:47:55;;;;;;;4.20;2.00;;;19.90;99.90;;;;;;5096450;28;20442;-67
2023/07/15 04:50:21;;;;;;;4.45;1.63;;;19.90;99.90;;;;;;5095286;28;20032;-82
2023/07/15 04:52:47;;;;;;;2.92;1.65;;;20.00;99.90;;;;;;5096205;28;20032;-67
2023/07/15 04:55:13;;;;;;;2.00;1.30;;;20.00;99.90;;;;;;5097079;28;20024;-89
2023/07/15 04:57:39;;;;;;;2.67;1.47;;;20.10;99.90;;;;;;5090609;28;20099;-67
2023/07/15 05:00:08;;;;;;;3.63;1.27;;;20.10;99.90;;;;;;5093564;28;20031;-66
2023/07/15 05:02:34;;;;;;;3.00;1.92;;;20.10;99.90;;;;;;5075393;28;20051;-66
2023/07/15 05:04:59;;;;;;;3.07;1.50;;;20.10;99.90;;;;;;5092142;28;20035;-68
2023/07/15 05:07:25;;;;;;;6.07;1.47;;;20.20;99.90;;;;;;5096786;28;20051;-67
2023/07/15 05:09:51;;;;;;;3.93;1.47;;;20.30;99.90;;;;;;5093423;28;20028;-67
2023/07/15 05:12:17;;;;;;;1.53;1.40;;;20.20;99.90;;;;;;5094849;28;20061;-67
2023/07/15 05:14:43;;;;;;;1.85;1.38;;;20.30;99.90;;;;;;5088808;28;20027;-67
2023/07/15 05:17:08;;;;;;;2.13;1.37;;;20.30;99.90;;;;;;5096504;28;20020;-67
2023/07/15 05:19:35;;;;;;;1.93;1.10;;;20.30;99.90;;;;;;5073834;28;20111;-66
2023/07/15 05:22:01;;;;;;;2.42;1.30;;;20.30;99.90;;;;;;5090775;28;20020;-86
2023/07/15 05:24:28;;;;;;;2.40;1.67;;;20.30;99.90;;;;;;5086250;28;20023;-67
2023/07/15 05:26:55;;;;;;;5.15;1.85;;;20.40;99.90;;;;;;5096169;28;20299;-66
2023/07/15 05:29:21;;;;;;;;;;;20.40;99.90;;;;;;5090687;28;20032;-66
2023/07/15 05:31:47;;;;;;;3.35;1.50;;;20.40;99.90;;;;;;5093916;28;19915;-67
2023/07/15 05:34:13;;;;;;;2.28;1.67;;;20.50;99.90;;;;;;5095869;28;20025;-66
2023/07/15 05:36:39;;;;;;;2.13;1.50;;;20.40;99.90;;;;;;5088804;28;20025;-66
2023/07/15 05:39:05;;;;;;;8.00;1.63;;;20.50;99.90;;;;;;5089331;28;20048;-68
2023/07/15 05:41:30;;;;;;;1.35;1.10;;;20.50;99.90;;;;;;5096193;28;20016;-66
2023/07/15 05:43:56;;;;;;;1.77;1.20;;;20.50;99.90;;;;;;5095953;28;20028;-67
2023/07/15 05:46:22;;;;;;;3.23;1.30;;;20.60;99.90;;;;;;5090051;28;20062;-66
2023/07/15 05:48:48;;;;;;;2.63;1.43;;;20.60;99.90;;;;;;5086524;28;20048;-67
2023/07/15 05:51:13;;;;;;;2.33;1.57;;;20.60;99.90;;;;;;5096161;28;20705;-66
2023/07/15 05:53:42;;;;;;;2.40;1.03;;;20.60;99.90;;;;;;5095483;28;20020;-66
2023/07/15 05:56:08;;;;;;;1.60;1.10;;;20.70;99.90;;;;;;5082543;28;20028;-66
2023/07/15 05:58:33;;;;;;;3.50;1.70;;;20.80;99.90;;;;;;5076512;28;20016;-67
2023/07/15 06:00:59;;;;;;;1.40;1.20;;;20.80;99.90;;;;;;5096262;28;20039;-67
2023/07/15 06:03:25;;;;;;;2.60;1.30;;;20.90;99.90;;;;;;5094825;28;20040;-67
2023/07/15 06:05:52;;;;;;;2.35;1.20;;;20.90;99.90;;;;;;5095341;28;20028;-83
2023/07/15 06:08:18;;;;;;;;;;;21.00;99.90;;;;;;5095657;28;20024;-66
2023/07/15 06:10:44;;;;;;;2.53;1.48;;;21.00;99.90;;;;;;5094557;28;19957;-66
2023/07/15 06:13:10;;;;;;;3.92;1.30;;;21.10;99.90;;;;;;5091498;28;20086;-66
2023/07/15 06:15:38;;;;;;;1.88;1.10;;;21.00;99.90;;;;;;5090714;28;20024;-67
2023/07/15 06:18:04;;;;;;;2.90;1.25;;;21.10;99.90;;;;;;5085340;28;20034;-67
2023/07/15 06:20:30;;;;;;;1.10;1.00;;;21.10;99.90;;;;;;5086365;28;20020;-66
2023/07/15 06:22:56;;;;;;;3.00;1.13;;;21.10;99.90;;;;;;5092982;28;20441;-67
2023/07/15 06:25:22;;;;;;;3.00;1.30;;;21.10;99.90;;;;;;5085078;28;20078;-66
2023/07/15 06:27:47;;;;;;;3.67;1.73;;;21.10;99.90;;;;;;5092992;28;20048;-66
2023/07/15 06:30:13;;;;;;;3.63;1.30;;;21.10;99.90;;;;;;5087137;28;20103;-66
2023/07/15 06:32:39;;;;;;;1.07;0.60;;;21.10;99.90;;;;;;5095359;28;20296;-66
2023/07/15 06:35:06;;;;;;;2.10;1.30;;;21.10;99.90;;;;;;5089006;28;20028;-66
2023/07/15 06:37:32;;;;;;;1.75;1.00;;;21.00;99.90;;;;;;5095696;28;20020;-66
2023/07/15 06:39:57;;;;;;;1.63;0.80;;;21.00;99.90;;;;;;5095369;28;20031;-66
2023/07/15 06:42:23;;;;;;;5.17;0.80;;;21.00;99.90;;;;;;5093741;28;20028;-66
2023/07/15 06:44:49;;;;;;;0.88;0.75;;;21.10;99.90;;;;;;5081957;28;20031;-66
2023/07/15 06:47:15;;;;;;;0.97;0.87;;;21.10;99.90;;;;;;5092343;28;20048;-68
2023/07/15 06:49:41;;;;;;;0.93;0.68;;;21.10;99.90;;;;;;5087399;28;20143;-90
2023/07/15 06:52:07;;;;;;;0.83;0.63;;;21.20;99.90;;;;;;5085823;28;20051;-67
2023/07/15 06:54:33;;;;;;;1.13;0.77;;;21.20;99.90;;;;;;5088707;28;20269;-66
2023/07/15 06:56:58;;;;;;;2.15;0.73;;;21.20;99.90;;;;;;5093763;28;20032;-66
2023/07/15 06:59:24;;;;;;;1.27;0.80;;;21.10;99.90;;;;;;5092396;28;20024;-66
2023/07/15 07:01:50;;;;;;;3.30;0.73;;;21.10;99.90;;;;;;5085937;28;20288;-66
2023/07/15 07:04:16;;;;;;;1.23;0.65;;;21.10;99.90;;;;;;5091605;28;20034;-66
2023/07/15 07:06:45;;;;;;;1.02;0.70;;;21.10;99.90;;;;;;5088170;28;20426;-69
2023/07/15 07:09:11;;;;;;;3.60;0.90;;;21.10;99.90;;;;;;5084841;28;20034;-66
2023/07/15 07:11:37;;;;;;;2.90;0.60;;;21.10;99.90;;;;;;5087040;28;20024;-66
2023/07/15 07:14:04;;;;;;;1.05;0.70;;;21.10;99.90;;;;;;5075977;28;20296;-66
2023/07/15 07:16:30;;;;;;;;;;;21.20;99.90;;;;;;5084522;28;20016;-66
2023/07/15 07:18:55;;;;;;;0.80;0.60;;;21.30;99.90;;;;;;5082645;28;19994;-66
2023/07/15 07:21:21;;;;;;;2.23;1.17;;;21.40;99.90;;;;;;5069746;28;20119;-66
2023/07/15 07:23:52;;;;;;;1.00;0.67;;;21.50;99.90;;;;;;5085763;28;20081;-78
2023/07/15 07:26:18;;;;;;;0.60;0.52;;;21.80;99.90;;;;;;5087113;28;20024;-67
2023/07/15 07:28:45;;;;;;;1.27;0.80;;;21.90;99.90;;;;;;5081469;28;20036;-87
2023/07/15 07:31:12;;;;;;;1.77;0.80;;;22.00;99.90;;;;;;5085810;28;20032;-66
2023/07/15 07:33:39;;;;;;;1.50;0.88;;;22.00;99.90;;;;;;5086752;28;20039;-67
2023/07/15 07:36:05;;;;;;;1.10;0.77;;;22.00;99.90;;;;;;5092728;28;20024;-66
2023/07/15 07:38:31;;;;;;;0.68;0.68;;;22.10;99.90;;;;;;5084796;28;20027;-65
2023/07/15 07:41:08;;;;;;;2.28;1.23;;;22.10;99.90;;;;;;5078287;28;20021;-67
2023/07/15 07:43:34;;;;;;;;;;;22.30;99.90;;;;;;5087298;28;20024;-66
2023/07/15 07:46:01;;;;;;;1.25;0.73;;;22.40;99.90;;;;;;5089214;28;19908;-66
2023/07/15 07:48:27;;;;;;;2.92;0.80;;;22.40;99.90;;;;;;5092662;28;20095;-66
2023/07/15 07:50:54;;;;;;;2.15;0.95;;;22.40;99.90;;;;;;5093388;28;20055;-66
2023/07/15 07:53:20;;;;;;;0.60;0.60;;;22.30;99.90;;;;;;5092649;28;20315;-66
2023/07/15 07:55:45;;;;;;;1.23;0.70;;;22.40;99.90;;;;;;5084528;28;20042;-66
2023/07/15 07:58:11;;;;;;;1.70;1.17;;;22.50;99.90;;;;;;5083321;28;20032;-67
2023/07/15 08:00:37;;;;;;;3.30;0.80;;;22.60;99.90;;;;;;5091919;28;20476;-66
2023/07/15 08:03:03;;;;;;;2.17;0.50;;;22.60;99.90;;;;;;5087524;28;20346;-67
2023/07/15 08:05:29;;;;;;;2.00;1.03;;;22.60;99.90;;;;;;5082126;28;20025;-88
2023/07/15 08:07:54;;;;;;;2.78;0.80;;;22.60;99.90;;;;;;5077569;28;20047;-66
2023/07/15 08:10:20;;;;;;;0.63;0.50;;;22.60;99.90;;;;;;5079859;28;20035;-89
2023/07/15 08:12:46;;;;;;;1.90;0.80;;;22.60;99.90;;;;;;5093433;28;20036;-65
2023/07/15 08:15:12;;;;;;;1.75;0.75;;;22.50;99.90;;;;;;5093590;28;20063;-87
2023/07/15 08:17:38;;;;;;;1.58;0.80;;;22.60;99.90;;;;;;5092534;28;20024;-66
2023/07/15 08:20:05;;;;;;;1.98;0.70;;;22.90;99.90;;;;;;5081514;28;20043;-65
2023/07/15 08:22:31;;;;;;;0.90;0.70;;;23.30;99.90;;;;;;5082289;28;20020;-66
2023/07/15 08:24:57;;;;;;;1.63;0.90;;;23.50;99.90;;;;;;5092539;28;20039;-67
2023/07/15 08:27:22;;;;;;;1.02;0.65;;;23.70;99.90;;;;;;5090684;28;20056;-66
2023/07/15 08:29:48;;;;;;;3.53;0.90;;;23.90;99.90;;;;;;5086030;28;20020;-66
2023/07/15 08:32:14;;;;;;;0.85;0.50;;;24.00;99.90;;;;;;5081724;28;20388;-68
2023/07/15 08:34:59;;;;;;;0.50;0.40;;;24.10;99.90;;;;;;5085655;28;20058;-67
2023/07/15 08:37:26;;;;;;;4.03;0.87;;;24.20;99.90;;;;;;5083000;28;20319;-66
2023/07/15 08:39:51;;;;;;;0.80;0.50;;;24.10;99.90;;;;;;5082972;28;20089;-68
2023/07/15 08:42:21;;;;;;;0.52;0.40;;;24.00;99.90;;;;;;5084659;28;20406;-66
2023/07/15 08:44:51;;;;;;;0.73;0.50;;;24.00;99.90;;;;;;5079186;28;20057;-67
2023/07/15 08:47:23;;;;;;;1.05;0.68;;;24.00;99.90;;;;;;5086300;28;20044;-66
2023/07/15 08:49:50;;;;;;;1.80;0.60;;;24.00;99.90;;;;;;5071039;28;20060;-76
2023/07/15 08:52:21;;;;;;;3.13;0.60;;;24.20;99.90;;;;;;5097017;28;20031;-66
2023/07/15 08:54:50;;;;;;;1.13;0.70;;;24.30;99.90;;;;;;5096989;28;20052;-83
2023/07/15 08:57:20;;;;;;;1.35;0.70;;;24.30;99.90;;;;;;5096301;28;20016;-67
2023/07/15 08:59:48;;;;;;;0.63;0.60;;;24.10;99.90;;;;;;5089911;28;20028;-67
2023/07/15 09:02:13;;;;;;;2.55;0.70;;;24.10;99.90;;;;;;5096329;28;20073;-85
2023/07/15 09:04:40;;;;;;;0.63;0.57;;;24.00;99.90;;;;;;5092492;28;20115;-66
2023/07/15 09:07:06;;;;;;;1.75;0.50;;;24.00;99.90;;;;;;5097390;28;20269;-66
2023/07/15 09:09:33;;;;;;;1.35;0.57;;;24.10;99.90;;;;;;5095206;28;20040;-84
2023/07/15 09:12:10;;;;;;;0.47;0.47;;;24.40;99.90;;;;;;5089431;28;20056;-67
2023/07/15 09:14:43;;;;;;;1.05;0.57;;;24.60;99.90;;;;;;5096996;28;20119;-66
2023/07/15 09:17:15;;;;;;;1.25;0.70;;;24.80;99.90;;;;;;5096996;28;20028;-67
2023/07/15 09:19:41;;;;;;;6.70;1.00;;;24.80;99.90;;;;;;5094330;28;20016;-89
2023/07/15 09:22:09;;;;;;;1.25;0.57;;;24.90;99.90;;;;;;5096762;28;20541;-67
2023/07/15 09:24:37;;;;;;;0.80;0.60;;;25.10;99.90;;;;;;5088310;28;20040;-68
2023/07/15 09:27:03;;;;;;;1.05;0.80;;;25.20;99.90;;;;;;5096805;28;20035;-67
2023/07/15 09:29:30;;;;;;;2.42;0.98;;;25.20;99.90;;;;;;5088146;28;20027;-67
2023/07/15 09:31:56;;;;;;;1.20;0.70;;;25.30;99.90;;;;;;5095196;28;20024;-72
2023/07/15 09:34:26;;;;;;;1.65;0.70;;;25.20;99.90;;;;;;5095288;28;20036;-83
2023/07/15 09:36:53;;;;;;;1.27;0.68;;;25.20;99.90;;;;;;5088920;28;20438;-70
2023/07/15 09:39:22;;;;;;;1.55;0.68;;;25.10;99.90;;;;;;5081192;28;20082;-67
2023/07/15 09:42:06;;;;;;;4.88;0.75;;;24.80;99.90;;;;;;5095080;28;20013;-69
2023/07/15 09:44:40;;;;;;;5.90;0.77;;;24.70;99.90;;;;;;5080952;28;20323;-77
2023/07/15 09:47:07;;;;;;;1.83;0.50;;;24.60;99.90;;;;;;5070182;28;20082;-67
2023/07/15 09:49:34;;;;;;;2.00;0.70;;;24.80;99.90;;;;;;5094218;28;20064;-67
2023/07/15 09:52:03;;;;;;;1.75;0.65;;;24.90;99.90;;;;;;5087782;28;20017;-67
2023/07/15 09:54:33;;;;;;;0.50;0.50;;;25.10;99.90;;;;;;5089745;28;20314;-67
2023/07/15 09:57:16;;;;;;;0.73;0.60;;;25.00;99.90;;;;;;5080691;28;20445;-67
2023/07/15 09:59:47;;;;;;;1.38;0.68;;;25.00;99.90;;;;;;5093291;28;20539;-68
2023/07/15 10:02:42;;;;;;;0.70;0.70;;;25.00;99.90;;;;;;5093365;28;20024;-91
2023/07/15 10:05:13;;;;;;;0.73;0.65;;;24.80;99.90;;;;;;5091529;28;20036;-72
2023/07/15 10:07:42;;;;;;;0.50;0.50;;;24.60;99.90;;;;;;5069198;28;20330;-81
2023/07/15 10:10:08;;;;;;;2.00;0.80;;;24.40;99.90;;;;;;5072697;28;20039;-79
2023/07/15 10:12:35;;;;;;;2.00;0.73;;;24.40;99.90;;;;;;5093861;28;20429;-68
2023/07/15 10:15:02;;;;;;;2.38;0.95;;;24.50;99.90;;;;;;5089696;28;20056;-67
2023/07/15 10:17:36;;;;;;;0.70;0.60;;;24.70;99.90;;;;;;5093781;28;20024;-91
2023/07/15 10:20:10;;;;;;;1.45;0.85;;;24.80;99.90;;;;;;5074807;28;20021;-84
2023/07/15 10:22:37;;;;;;;8.57;2.63;;;24.80;99.90;;;;;;5081823;28;20063;-76
2023/07/15 10:25:05;;;;;;;29.08;4.45;;;24.70;99.90;;;;;;5094540;28;20016;-81
2023/07/15 10:27:32;;;;;;;1.35;1.00;;;24.70;99.90;;;;;;5073034;28;20024;-70
2023/07/15 10:30:24;;;;;;;1.35;0.95;;;24.60;99.90;;;;;;5076893;28;20043;-89
2023/07/15 10:32:58;;;;;;;2.25;0.98;;;24.50;99.90;;;;;;5088520;28;20021;-80
2023/07/15 10:35:51;;;;;;;6.40;1.33;;;24.70;99.90;;;;;;5078176;28;20024;-91
2023/07/15 10:38:31;;;;;;;1.45;1.20;;;24.90;99.90;;;;;;5094120;28;20024;-80
2023/07/15 10:41:02;;;;;;;4.10;1.33;;;25.00;99.90;;;;;;5088120;28;20026;-83
2023/07/15 10:43:34;;;;;;;3.05;1.00;;;25.20;99.90;;;;;;5089337;28;20051;-67
2023/07/15 10:46:11;;;;;;;2.03;1.13;;;25.40;99.90;;;;;;5090044;28;20427;-66
2023/07/15 10:48:38;;;;;;;2.08;1.33;;;25.50;99.90;;;;;;5090403;28;20238;-66
2023/07/15 10:51:08;;;;;;;1.20;1.10;;;25.70;99.90;;;;;;5092817;28;20338;-88
2023/07/15 10:53:35;;;;;;;1.30;0.98;;;25.80;99.90;;;;;;5073580;28;20032;-67
2023/07/15 10:56:12;;;;;;;2.38;1.23;;;25.90;99.90;;;;;;5091757;28;20020;-81
2023/07/15 10:58:40;;;;;;;1.55;1.25;;;25.70;99.90;;;;;;5090864;28;20028;-67
2023/07/15 11:01:11;;;;;;;1.50;1.20;;;25.50;99.90;;;;;;5086542;28;20028;-66
2023/07/15 11:03:41;;;;;;;1.20;1.10;;;25.50;99.90;;;;;;5087228;28;20081;-66
2023/07/15 11:06:07;;;;;;;2.22;1.13;;;25.70;99.90;;;;;;5094680;28;20016;-66
2023/07/15 11:08:33;;;;;;;1.85;1.20;;;26.10;99.90;;;;;;5092972;28;20552;-66
2023/07/15 11:11:04;;;;;;;2.80;1.17;;;26.30;99.90;;;;;;5094949;28;20107;-66
2023/07/15 11:13:30;;;;;;;2.72;1.23;;;26.40;99.90;;;;;;5094568;28;20035;-67
2023/07/15 11:15:56;;;;;;;;;;;26.30;99.90;;;;;;5092669;28;20069;-68
2023/07/15 11:18:24;;;;;;;1.10;1.00;;;26.10;99.90;;;;;;5092961;28;19916;-67
2023/07/15 11:20:53;;;;;;;2.75;1.15;;;26.00;99.90;;;;;;5092287;28;20016;-66
2023/07/15 11:23:18;;;;;;;1.55;1.10;;;25.90;99.90;;;;;;5094614;28;20495;-67
2023/07/15 11:25:45;;;;;;;2.00;1.10;;;25.70;99.90;;;;;;5094370;28;20060;-85
2023/07/15 11:28:11;;;;;;;;;;;25.40;99.90;;;;;;5094856;28;20426;-83
2023/07/15 11:30:47;;;;;;;2.25;1.10;;;25.50;99.90;;;;;;5093273;28;20365;-90
2023/07/15 11:33:14;;;;;;;4.63;1.15;;;25.60;99.90;;;;;;5092504;28;20036;-93
2023/07/15 11:35:41;;;;;;;3.45;1.10;;;25.90;99.90;;;;;;5086755;28;20027;-67
2023/07/15 11:38:14;;;;;;;5.80;1.30;;;26.30;99.90;;;;;;5094587;28;20046;-83
2023/07/15 11:40:52;;;;;;;13.95;2.53;;;26.40;99.90;;;;;;5076491;28;20051;-90
2023/07/15 11:43:20;;;;;;;5.47;1.25;;;26.60;99.90;;;;;;5074306;28;20028;-91
2023/07/15 11:45:46;;;;;;;1.48;0.95;;;26.60;99.90;;;;;;5089195;28;20119;-68
2023/07/15 11:48:12;;;;;;;;;;;27.00;99.90;;;;;;5093555;28;20096;-88
2023/07/15 11:50:37;;;;;;;;;;;27.30;99.90;;;;;;5092408;28;19904;-88
2023/07/15 11:53:03;;;;;;;3.50;0.90;;;27.60;99.90;;;;;;5089346;28;19952;-82
2023/07/15 11:55:29;;;;;;;3.10;1.20;;;27.80;99.90;;;;;;5092769;28;20453;-68
2023/07/15 11:57:55;;;;;;;1.95;1.10;;;28.00;99.90;;;;;;5076608;28;20133;-66
2023/07/15 12:00:42;;;;;;;2.70;1.20;;;28.00;99.90;;;;;;5088698;28;20114;-84
2023/07/15 12:03:08;;;;;;;3.28;1.23;;;27.80;99.90;;;;;;5093066;28;20028;-83
2023/07/15 12:05:38;;;;;;;2.03;0.60;;;27.60;99.90;;;;;;5089115;28;20028;-67
2023/07/15 12:08:11;;;;;;;3.95;1.10;;;27.50;99.90;;;;;;5084401;28;20606;-78
2023/07/15 12:10:50;;;;;;;3.08;1.00;;;27.40;99.90;;;;;;5087877;28;20304;-65
2023/07/15 12:13:16;;;;;;;1.27;1.02;;;27.40;99.90;;;;;;5090012;28;20031;-68
2023/07/15 12:15:42;;;;;;;;;;;27.40;99.90;;;;;;5093974;28;20028;-66
2023/07/15 12:18:07;;;;;;;;;;;27.50;99.90;;;;;;5094905;28;20295;-67
2023/07/15 12:20:33;;;;;;;4.37;1.37;;;27.40;99.90;;;;;;5089012;28;19904;-66
2023/07/15 12:22:58;;;;;;;1.58;1.13;;;27.30;99.90;;;;;;5095345;28;20111;-67
2023/07/15 12:25:25;;;;;;;3.73;1.07;;;27.10;99.90;;;;;;5095713;28;20036;-66
2023/07/15 12:27:51;;;;;;;1.90;0.98;;;27.00;99.90;;;;;;5093931;28;20610;-67
2023/07/15 12:30:17;;;;;;;2.42;0.88;;;26.80;99.90;;;;;;5097276;28;20032;-66
2023/07/15 12:32:42;;;;;;;1.83;1.08;;;26.90;99.90;;;;;;5090835;28;20078;-66
2023/07/15 12:35:08;;;;;;;1.23;1.00;;;27.00;99.90;;;;;;5088240;28;20058;-68
2023/07/15 12:37:35;;;;;;;1.58;0.85;;;27.10;99.90;;;;;;5095366;28;20268;-66
2023/07/15 12:40:03;;;;;;;1.13;0.80;;;27.10;99.90;;;;;;5089624;28;20499;-85
2023/07/15 12:42:29;;;;;;;1.48;0.80;;;27.10;99.90;;;;;;5096004;28;20024;-66
2023/07/15 12:44:54;;;;;;;3.70;1.40;;;27.40;99.90;;;;;;5095764;28;20085;-66
2023/07/15 12:47:20;;;;;;;3.75;0.90;;;27.40;99.90;;;;;;5096138;28;20040;-66
2023/07/15 12:49:46;;;;;;;1.95;1.08;;;27.20;99.90;;;;;;5093272;28;20027;-67
2023/07/15 12:52:11;;;;;;;2.88;1.30;;;27.00;99.90;;;;;;5089864;28;20031;-83